Time;durP1;ratioP1;P1;durP2;ratioP2;P2;SDS_P1;SDS_P2;PMS_P1;PMS_P2;Temp;Humidity;BMP_temperature;BMP_pressure;BME280_temperature;BME280_humidity;BME280_pressure;Samples;Min_cycle;Max_cycle;Signal;HPM_P1;HPM_P2
2022/08/07 00:00:49;;;;;;;;;;;18.20;80.60;;;;;;5116257;28;19912;-81
2022/08/07 00:03:14;;;;;;;;;;;18.20;80.10;;;;;;5116158;28;20261;-77
2022/08/07 00:05:40;;;;;;;;;;;18.20;80.90;;;;;;5098056;28;19915;-80
2022/08/07 00:08:06;;;;;;;;;;;18.10;81.60;;;;;;5116463;28;19923;-80
2022/08/07 00:10:31;;;;;;;;;;;18.10;81.40;;;;;;5116540;28;20388;-80
2022/08/07 00:12:58;;;;;;;;;;;18.00;83.10;;;;;;5116384;28;19914;-81
2022/08/07 00:15:24;;;;;;;;;;;18.00;83.10;;;;;;5116527;28;19908;-78
2022/08/07 00:17:50;;;;;;;;;;;17.90;84.00;;;;;;5116462;28;20279;-78
2022/08/07 00:20:16;;;;;;;;;;;17.70;85.10;;;;;;5116376;28;19908;-78
2022/08/07 00:22:41;;;;;;;;;;;17.90;85.10;;;;;;5097762;28;19931;-81
2022/08/07 00:25:07;;;;;;;;;;;17.80;85.00;;;;;;5115999;28;19934;-80
2022/08/07 00:27:34;;;;;;;;;;;17.80;84.80;;;;;;5116029;28;19958;-80
2022/08/07 00:30:00;;;;;;;;;;;17.90;83.90;;;;;;5116411;28;19915;-80
2022/08/07 00:32:25;;;;;;;;;;;17.80;83.90;;;;;;5116179;28;19907;-79
2022/08/07 00:34:51;;;;;;;;;;;17.70;85.50;;;;;;5116027;28;19951;-80
2022/08/07 00:37:17;;;;;;;;;;;17.60;85.50;;;;;;5115816;28;19915;-81
2022/08/07 00:39:42;;;;;;;;;;;17.60;85.90;;;;;;5115956;28;19908;-80
2022/08/07 00:42:08;;;;;;;;;;;17.60;85.70;;;;;;5115483;28;19963;-80
2022/08/07 00:44:34;;;;;;;;;;;17.60;84.70;;;;;;5115882;28;19912;-79
2022/08/07 00:47:04;;;;;;;;;;;17.70;84.40;;;;;;5115856;28;19912;-77
2022/08/07 00:49:29;;;;;;;;;;;17.80;83.30;;;;;;5115408;28;19926;-78
2022/08/07 00:51:55;;;;;;;;;;;17.70;84.20;;;;;;5115580;28;19908;-79
2022/08/07 00:54:21;;;;;;;;;;;17.70;83.70;;;;;;5115917;28;19915;-78
2022/08/07 00:56:50;;;;;;;;;;;17.60;83.80;;;;;;5115350;28;19953;-81
2022/08/07 00:59:16;;;;;;;;;;;17.60;83.80;;;;;;5115316;28;19915;-79
2022/08/07 01:01:41;;;;;;;;;;;17.60;84.10;;;;;;5115556;28;19912;-78
2022/08/07 01:04:07;;;;;;;;;;;17.50;85.00;;;;;;5115561;28;19912;-79
2022/08/07 01:06:33;;;;;;;;;;;17.50;85.30;;;;;;5115398;28;19958;-79
2022/08/07 01:08:59;;;;;;;;;;;17.30;85.90;;;;;;5115246;28;19912;-77
2022/08/07 01:11:25;;;;;;;;;;;17.30;85.30;;;;;;5115430;28;19908;-78
2022/08/07 01:13:51;;;;;;;;;;;17.20;85.60;;;;;;5115508;28;19915;-80
2022/08/07 01:16:17;;;;;;;;;;;17.20;86.40;;;;;;5096742;28;20277;-79
2022/08/07 01:18:43;;;;;;;;;;;16.90;88.80;;;;;;5114829;28;19915;-78
2022/08/07 01:21:23;;;;;;;;;;;16.90;89.90;;;;;;5115427;28;19908;-79
2022/08/07 01:23:50;;;;;;;;;;;16.90;89.40;;;;;;5115075;28;19968;-77
2022/08/07 01:26:17;;;;;;;;;;;16.90;90.00;;;;;;5115009;28;19915;-77
2022/08/07 01:28:43;;;;;;;;;;;16.90;89.20;;;;;;5096593;28;19912;-81
2022/08/07 01:31:09;;;;;;;;;;;16.80;90.40;;;;;;5115370;28;19926;-79
2022/08/07 01:33:35;;;;;;;;;;;16.80;90.20;;;;;;5096244;28;19908;-81
2022/08/07 01:36:01;;;;;;;;;;;16.80;90.00;;;;;;5114884;28;20287;-77
2022/08/07 01:38:27;;;;;;;;;;;16.80;89.90;;;;;;5114639;28;20394;-78
2022/08/07 01:40:53;;;;;;;;;;;16.90;90.20;;;;;;5114622;28;20387;-80
2022/08/07 01:43:19;;;;;;;;;;;16.80;90.20;;;;;;5114369;28;20296;-77
2022/08/07 01:45:45;;;;;;;;;;;16.70;90.20;;;;;;5114270;28;19938;-78
2022/08/07 01:48:10;;;;;;;;;;;16.60;90.80;;;;;;5114720;28;19915;-79
2022/08/07 01:50:37;;;;;;;;;;;16.60;90.70;;;;;;5114362;28;19908;-80
2022/08/07 01:53:03;;;;;;;;;;;16.70;90.50;;;;;;5114430;28;19946;-77
2022/08/07 01:55:33;;;;;;;;;;;16.60;90.80;;;;;;5114440;28;19912;-80
2022/08/07 01:57:59;;;;;;;;;;;16.60;90.50;;;;;;5114414;28;19915;-80
2022/08/07 02:00:26;;;;;;;;;;;16.70;90.50;;;;;;5114620;28;20364;-80
2022/08/07 02:02:55;;;;;;;;;;;16.30;91.40;;;;;;5114494;28;19908;-76
2022/08/07 02:05:32;;;;;;;;;;;16.30;91.80;;;;;;5114357;28;20330;-81
2022/08/07 02:08:00;;;;;;;;;;;16.30;91.80;;;;;;5114555;28;20418;-80
2022/08/07 02:10:26;;;;;;;;;;;16.40;91.80;;;;;;5114423;28;19921;-79
2022/08/07 02:12:54;;;;;;;;;;;16.10;92.90;;;;;;5114610;28;19935;-79
2022/08/07 02:15:22;;;;;;;;;;;16.20;92.40;;;;;;5114431;28;19908;-79
2022/08/07 02:17:48;;;;;;;;;;;16.20;92.70;;;;;;5096030;28;19939;-79
2022/08/07 02:20:15;;;;;;;;;;;16.10;93.10;;;;;;5114136;28;19907;-79
2022/08/07 02:22:41;;;;;;;;;;;16.10;93.40;;;;;;5114375;28;20317;-78
2022/08/07 02:25:07;;;;;;;;;;;15.90;94.50;;;;;;5114053;28;19967;-80
2022/08/07 02:27:34;;;;;;;;;;;15.80;95.50;;;;;;5114181;28;20006;-77
2022/08/07 02:30:00;;;;;;;;;;;16.00;95.00;;;;;;5115063;28;19995;-76
2022/08/07 02:32:26;;;;;;;;;;;16.10;94.10;;;;;;5114390;28;19946;-80
2022/08/07 02:34:52;;;;;;;;;;;15.90;95.20;;;;;;5114333;28;20049;-78
2022/08/07 02:37:18;;;;;;;;;;;15.90;94.90;;;;;;5113926;28;19969;-79
2022/08/07 02:39:45;;;;;;;;;;;15.80;96.40;;;;;;5114115;28;19952;-80
2022/08/07 02:42:10;;;;;;;;;;;15.70;97.70;;;;;;5114014;28;19959;-80
2022/08/07 02:44:37;;;;;;;;;;;15.50;99.50;;;;;;5113877;28;19976;-78
2022/08/07 02:47:04;;;;;;;;;;;15.80;98.50;;;;;;5113980;28;19915;-78
2022/08/07 02:49:29;;;;;;;;;;;15.90;97.60;;;;;;5113902;28;19937;-78
2022/08/07 02:51:57;;;;;;;;;;;15.90;97.00;;;;;;5114235;28;19908;-78
2022/08/07 02:54:24;;;;;;;;;;;16.00;96.90;;;;;;5113778;28;19908;-80
2022/08/07 02:56:50;;;;;;;;;;;15.80;97.20;;;;;;5114335;28;19908;-81
2022/08/07 02:59:17;;;;;;;;;;;15.80;97.30;;;;;;5117633;28;20364;-79
2022/08/07 03:01:44;;;;;;;;;;;15.70;97.90;;;;;;5117552;28;19915;-79
2022/08/07 03:04:11;;;;;;;;;;;15.70;97.90;;;;;;5099245;28;20002;-79
2022/08/07 03:06:37;;;;;;;;;;;15.60;98.50;;;;;;5117446;28;20256;-77
2022/08/07 03:09:03;;;;;;;;;;;15.70;97.70;;;;;;5117374;28;19914;-79
2022/08/07 03:11:30;;;;;;;;;;;15.70;97.30;;;;;;5117338;28;19912;-77
2022/08/07 03:13:56;;;;;;;;;;;15.70;97.50;;;;;;5117256;28;19931;-79
2022/08/07 03:16:22;;;;;;;;;;;15.70;96.20;;;;;;5117508;28;20363;-76
2022/08/07 03:18:48;;;;;;;;;;;15.60;95.80;;;;;;5117326;28;19999;-79
2022/08/07 03:21:14;;;;;;;;;;;15.60;95.80;;;;;;5117323;28;19968;-79
2022/08/07 03:23:40;;;;;;;;;;;15.30;95.80;;;;;;5116997;28;19919;-77
2022/08/07 03:26:06;;;;;;;;;;;15.20;95.80;;;;;;5117211;28;20062;-78
2022/08/07 03:28:34;;;;;;;;;;;15.20;96.20;;;;;;5117494;28;19908;-81
2022/08/07 03:31:18;;;;;;;;;;;15.10;96.30;;;;;;5117480;28;19912;-77
2022/08/07 03:33:48;;;;;;;;;;;15.00;97.10;;;;;;5117273;28;19908;-77
2022/08/07 03:36:15;;;;;;;;;;;14.50;99.90;;;;;;5116828;28;19908;-81
2022/08/07 03:38:41;;;;;;;;;;;14.70;99.90;;;;;;5116973;28;19950;-81
2022/08/07 03:41:07;;;;;;;;;;;14.50;99.90;;;;;;5116568;28;20406;-76
2022/08/07 03:43:34;;;;;;;;;;;14.80;99.90;;;;;;5116876;28;19918;-78
2022/08/07 03:46:01;;;;;;;;;;;14.90;99.90;;;;;;5116714;28;19912;-78
2022/08/07 03:48:28;;;;;;;;;;;15.00;99.90;;;;;;5116648;28;19962;-80
2022/08/07 03:50:55;;;;;;;;;;;15.10;99.90;;;;;;5098469;28;19943;-76
2022/08/07 03:53:20;;;;;;;;;;;15.20;99.90;;;;;;5116580;28;19907;-80
2022/08/07 03:55:47;;;;;;;;;;;15.20;99.80;;;;;;5116678;28;20364;-77
2022/08/07 03:58:13;;;;;;;;;;;15.00;99.10;;;;;;5116553;28;20248;-79
2022/08/07 04:00:40;;;;;;;;;;;14.80;99.90;;;;;;5116419;28;19916;-79
2022/08/07 04:03:05;;;;;;;;;;;14.20;99.90;;;;;;5116205;28;19923;-79
2022/08/07 04:05:34;;;;;;;;;;;14.30;99.90;;;;;;5116526;28;19908;-77
2022/08/07 04:08:01;;;;;;;;;;;14.50;99.90;;;;;;5116346;28;19915;-79
2022/08/07 04:10:26;;;;;;;;;;;14.60;99.90;;;;;;5115624;28;19914;-79
2022/08/07 04:12:52;;;;;;;;;;;14.40;99.90;;;;;;5116387;28;19995;-78
2022/08/07 04:15:19;;;;;;;;;;;13.90;99.90;;;;;;5116572;28;19914;-80
2022/08/07 04:17:45;;;;;;;;;;;14.10;99.90;;;;;;5116283;28;19946;-79
2022/08/07 04:20:11;;;;;;;;;;;14.00;99.90;;;;;;5116179;28;19950;-78
2022/08/07 04:22:37;;;;;;;;;;;14.20;99.90;;;;;;5116044;28;19950;-76
2022/08/07 04:25:03;;;;;;;;;;;14.50;99.90;;;;;;5115775;28;19959;-78
2022/08/07 04:27:29;;;;;;;;;;;14.70;99.90;;;;;;5115864;28;19919;-77
2022/08/07 04:29:55;;;;;;;;;;;14.70;99.90;;;;;;5115982;28;19908;-77
2022/08/07 04:32:20;;;;;;;;;;;14.60;99.90;;;;;;5116393;28;20404;-78
2022/08/07 04:34:46;;;;;;;;;;;14.60;99.90;;;;;;5115871;28;19915;-79
2022/08/07 04:37:11;;;;;;;;;;;14.60;99.90;;;;;;5097510;28;20368;-77
2022/08/07 04:39:37;;;;;;;;;;;14.50;99.90;;;;;;5115680;28;19915;-77
2022/08/07 04:42:03;;;;;;;;;;;14.40;99.90;;;;;;5115505;28;19924;-77
2022/08/07 04:44:29;;;;;;;;;;;14.30;99.90;;;;;;5115487;28;19912;-77
2022/08/07 04:47:01;;;;;;;;;;;14.30;99.90;;;;;;5097236;28;19912;-77
2022/08/07 04:49:30;;;;;;;;;;;14.20;99.90;;;;;;5115284;28;19908;-76
2022/08/07 04:52:05;;;;;;;;;;;14.30;99.90;;;;;;5115410;28;20271;-78
2022/08/07 04:54:31;;;;;;;;;;;14.20;99.90;;;;;;5097137;28;19907;-79
2022/08/07 04:57:06;;;;;;;;;;;14.10;99.90;;;;;;5115419;28;19916;-79
2022/08/07 04:59:33;;;;;;;;;;;14.10;99.90;;;;;;5096845;28;19908;-80
2022/08/07 05:02:02;;;;;;;;;;;14.10;99.90;;;;;;5115191;28;19912;-81
2022/08/07 05:04:31;;;;;;;;;;;14.20;99.90;;;;;;5115273;28;19912;-79
2022/08/07 05:07:18;;;;;;;;;;;14.20;99.90;;;;;;5115000;28;19955;-77
2022/08/07 05:09:44;;;;;;;;;;;14.30;99.90;;;;;;5115274;28;20013;-79
2022/08/07 05:12:13;;;;;;;;;;;14.30;99.90;;;;;;5096703;28;19947;-81
2022/08/07 05:14:41;;;;;;;;;;;14.30;99.90;;;;;;5114841;28;19919;-78
2022/08/07 05:17:08;;;;;;;;;;;14.30;99.90;;;;;;5115262;28;19907;-80
2022/08/07 05:19:40;;;;;;;;;;;14.50;99.90;;;;;;5114840;28;19908;-79
2022/08/07 05:22:07;;;;;;;;;;;14.50;99.90;;;;;;5114159;28;20416;-77
2022/08/07 05:24:33;;;;;;;;;;;14.60;99.90;;;;;;5114700;28;19996;-80
2022/08/07 05:27:00;;;;;;;;;;;14.60;99.90;;;;;;5114515;28;19912;-79
2022/08/07 05:29:26;;;;;;;;;;;14.70;99.90;;;;;;5114554;28;19908;-80
2022/08/07 05:31:52;;;;;;;;;;;14.80;99.90;;;;;;5115087;28;19999;-76
2022/08/07 05:34:18;;;;;;;;;;;14.70;99.90;;;;;;5114500;28;20395;-79
2022/08/07 05:36:51;;;;;;;;;;;14.70;99.90;;;;;;5114657;28;20439;-81
2022/08/07 05:39:18;;;;;;;;;;;14.70;99.90;;;;;;5114484;28;19950;-80
2022/08/07 05:41:46;;;;;;;;;;;14.70;99.90;;;;;;5114384;28;19989;-78
2022/08/07 05:44:12;;;;;;;;;;;14.70;99.90;;;;;;5114302;28;19941;-78
2022/08/07 05:46:38;;;;;;;;;;;14.70;99.90;;;;;;5114618;28;19908;-77
2022/08/07 05:49:05;;;;;;;;;;;14.80;99.90;;;;;;5114340;28;19998;-78
2022/08/07 05:51:31;;;;;;;;;;;14.90;99.90;;;;;;5114517;28;19961;-79
2022/08/07 05:53:56;;;;;;;;;;;15.00;99.90;;;;;;5114265;28;19912;-78
2022/08/07 05:56:22;;;;;;;;;;;15.10;99.90;;;;;;5095929;28;19949;-77
2022/08/07 05:58:48;;;;;;;;;;;15.30;99.90;;;;;;5095829;28;19908;-78
2022/08/07 06:01:15;;;;;;;;;;;15.40;99.90;;;;;;5114372;28;19931;-77
2022/08/07 06:03:43;;;;;;;;;;;15.50;99.90;;;;;;5113695;28;20371;-79
2022/08/07 06:06:10;;;;;;;;;;;15.60;99.60;;;;;;5095773;28;19911;-80
2022/08/07 06:08:36;;;;;;;;;;;15.70;99.60;;;;;;5114610;28;19915;-80
2022/08/07 06:11:01;;;;;;;;;;;15.80;99.90;;;;;;5114003;28;19908;-78
2022/08/07 06:13:28;;;;;;;;;;;16.00;99.90;;;;;;5113950;28;19938;-78
2022/08/07 06:15:54;;;;;;;;;;;16.00;99.90;;;;;;5095738;28;19915;-80
2022/08/07 06:18:20;;;;;;;;;;;16.20;99.90;;;;;;5113888;28;20332;-78
2022/08/07 06:20:46;;;;;;;;;;;16.30;99.90;;;;;;5114061;28;19914;-77
2022/08/07 06:23:12;;;;;;;;;;;16.20;99.90;;;;;;5114078;28;19908;-78
2022/08/07 06:25:38;;;;;;;;;;;16.20;99.90;;;;;;5113964;28;19908;-78
2022/08/07 06:28:05;;;;;;;;;;;16.40;99.90;;;;;;5113796;28;20003;-79
2022/08/07 06:30:37;;;;;;;;;;;16.40;99.90;;;;;;5114571;28;20329;-80
2022/08/07 06:33:03;;;;;;;;;;;16.40;99.90;;;;;;5116894;28;19908;-80
2022/08/07 06:35:29;;;;;;;;;;;16.80;99.90;;;;;;5099591;28;20002;-80
2022/08/07 06:37:56;;;;;;;;;;;16.90;99.90;;;;;;5117888;28;20351;-80
2022/08/07 06:40:22;;;;;;;;;;;17.10;99.90;;;;;;5117720;28;20292;-77
2022/08/07 06:42:48;;;;;;;;;;;17.20;99.90;;;;;;5117525;28;19919;-81
2022/08/07 06:45:15;;;;;;;;;;;17.30;99.90;;;;;;5117923;28;20325;-81
2022/08/07 06:47:41;;;;;;;;;;;17.60;99.90;;;;;;5117556;28;19940;-81
2022/08/07 06:50:07;;;;;;;;;;;17.70;99.90;;;;;;5117832;28;19955;-79
2022/08/07 06:52:35;;;;;;;;;;;17.80;99.90;;;;;;5118040;28;19970;-77
2022/08/07 06:55:00;;;;;;;;;;;18.00;99.90;;;;;;5117378;28;19908;-80
2022/08/07 06:57:28;;;;;;;;;;;18.30;98.60;;;;;;5117621;28;20347;-81
2022/08/07 06:59:54;;;;;;;;;;;18.40;97.20;;;;;;5117443;28;19951;-79
2022/08/07 07:02:21;;;;;;;;;;;18.60;96.60;;;;;;5117502;28;19937;-78
2022/08/07 07:04:47;;;;;;;;;;;18.70;95.70;;;;;;5117395;28;20428;-80
2022/08/07 07:07:13;;;;;;;;;;;18.80;94.60;;;;;;5117577;28;19912;-81
2022/08/07 07:09:46;;;;;;;;;;;19.80;92.40;;;;;;5117419;28;20068;-78
2022/08/07 07:12:12;;;;;;;;;;;22.10;84.50;;;;;;5117274;28;19908;-77
2022/08/07 07:14:46;;;;;;;;;;;24.10;73.50;;;;;;5117448;28;19937;-81
2022/08/07 07:17:19;;;;;;;;;;;25.20;69.60;;;;;;5117381;28;19995;-82
2022/08/07 07:19:47;;;;;;;;;;;25.70;63.90;;;;;;5117215;28;19943;-80
2022/08/07 07:22:15;;;;;;;;;;;26.60;63.50;;;;;;5117130;28;19908;-80
2022/08/07 07:24:41;;;;;;;;;;;26.70;61.30;;;;;;5117063;28;20006;-78
2022/08/07 07:27:08;;;;;;;;;;;26.60;60.30;;;;;;5117188;28;20359;-81
2022/08/07 07:29:38;;;;;;;;;;;26.20;60.90;;;;;;5116912;28;19907;-78
2022/08/07 07:32:06;;;;;;;;;;;26.00;61.80;;;;;;5117963;28;19908;-82
2022/08/07 07:34:33;;;;;;;;;;;25.90;61.50;;;;;;5117157;28;20296;-79
2022/08/07 07:36:59;;;;;;;;;;;25.80;60.60;;;;;;5098613;28;19918;-82
2022/08/07 07:39:26;;;;;;;;;;;25.60;61.20;;;;;;5116868;28;19996;-77
2022/08/07 07:41:53;;;;;;;;;;;25.60;61.00;;;;;;5116533;28;19949;-82
2022/08/07 07:44:20;;;;;;;;;;;25.50;60.80;;;;;;5115775;28;19912;-77
2022/08/07 07:46:47;;;;;;;;;;;25.00;58.40;;;;;;5116692;28;20326;-78
2022/08/07 07:49:14;;;;;;;;;;;25.20;59.50;;;;;;5116611;28;20003;-81
2022/08/07 07:51:41;;;;;;;;;;;25.50;59.60;;;;;;5116533;28;19919;-80
2022/08/07 07:54:07;;;;;;;;;;;25.70;59.60;;;;;;5116524;28;19961;-80
2022/08/07 07:56:34;;;;;;;;;;;25.70;58.80;;;;;;5116489;28;19907;-79
2022/08/07 07:59:00;;;;;;;;;;;25.80;58.90;;;;;;5116506;28;19916;-80
2022/08/07 08:01:27;;;;;;;;;;;25.60;57.40;;;;;;5116614;28;20261;-79
2022/08/07 08:03:54;;;;;;;;;;;26.00;57.40;;;;;;5116182;28;19912;-77
2022/08/07 08:06:22;;;;;;;;;;;25.60;56.00;;;;;;5116452;28;20371;-81
2022/08/07 08:08:48;;;;;;;;;;;25.20;57.00;;;;;;5116102;28;19907;-80
2022/08/07 08:11:13;;;;;;;;;;;25.60;57.20;;;;;;5116029;28;20010;-81
2022/08/07 08:13:41;;;;;;;;;;;25.90;56.70;;;;;;5116121;28;19916;-81
2022/08/07 08:16:07;;;;;;;;;;;25.70;55.30;;;;;;5115964;28;20318;-80
2022/08/07 08:18:34;;;;;;;;;;;25.70;56.00;;;;;;5116118;28;20372;-80
2022/08/07 08:21:00;;;;;;;;;;;26.40;56.10;;;;;;5116251;28;19913;-81
2022/08/07 08:28:58;;;;;;;;;;;26.80;53.70;;;;;;5115628;28;20341;-84
2022/08/07 08:31:29;;;;;;;;;;;26.70;53.50;;;;;;5116293;28;20279;-81
2022/08/07 08:33:56;;;;;;;;;;;26.80;53.40;;;;;;5115574;28;19933;-80
2022/08/07 08:36:29;;;;;;;;;;;27.60;53.50;;;;;;5115652;28;19915;-82
2022/08/07 08:38:55;;;;;;;;;;;27.70;52.50;;;;;;5115943;28;19908;-81
2022/08/07 08:41:24;;;;;;;;;;;28.30;52.00;;;;;;5115426;28;19919;-79
2022/08/07 08:44:02;;;;;;;;;;;28.70;52.00;;;;;;5115434;28;19916;-80
2022/08/07 08:46:30;;;;;;;;;;;29.10;50.90;;;;;;5115330;28;20353;-81
2022/08/07 08:48:57;;;;;;;;;;;29.70;50.50;;;;;;5115464;28;19915;-81
2022/08/07 08:51:27;;;;;;;;;;;29.60;49.20;;;;;;5115232;28;20003;-80
2022/08/07 08:54:02;;;;;;;;;;;29.90;49.00;;;;;;5096956;28;19934;-82
2022/08/07 08:56:31;;;;;;;;;;;30.40;48.00;;;;;;5115236;28;20269;-81
2022/08/07 08:59:16;;;;;;;;;;;30.30;47.80;;;;;;5115481;28;19953;-78
2022/08/07 09:02:00;;;;;;;;;;;30.60;47.90;;;;;;5096781;28;19907;-82
2022/08/07 09:04:35;;;;;;;;;;;31.00;46.90;;;;;;5114969;28;20011;-83
2022/08/07 09:07:04;;;;;;;;;;;31.40;46.30;;;;;;5096670;28;20003;-82
2022/08/07 09:09:36;;;;;;;;;;;32.00;45.30;;;;;;5114858;28;19911;-79
2022/08/07 09:12:11;;;;;;;;;;;32.60;44.90;;;;;;5115198;28;19908;-82
2022/08/07 09:15:03;;;;;;;;;;;32.50;43.40;;;;;;5114860;28;19915;-80
2022/08/07 09:17:29;;;;;;;;;;;32.80;42.70;;;;;;5109754;28;19908;-79
2022/08/07 09:19:58;;;;;;;;;;;32.70;42.10;;;;;;5114710;28;20382;-81
2022/08/07 09:22:29;;;;;;;;;;;33.10;42.50;;;;;;5114676;28;19954;-82
2022/08/07 09:24:55;;;;;;;;;;;34.20;42.00;;;;;;5114500;28;19964;-80
2022/08/07 09:27:21;;;;;;;;;;;34.40;41.30;;;;;;5114540;28;19907;-79
2022/08/07 09:29:51;;;;;;;;;;;35.10;40.90;;;;;;5114710;28;19908;-81
2022/08/07 09:32:23;;;;;;;;;;;35.40;39.70;;;;;;5115267;28;19953;-81
2022/08/07 09:34:57;;;;;;;;;;;35.40;39.40;;;;;;5114803;28;19914;-83
2022/08/07 09:37:43;;;;;;;;;;;35.50;39.20;;;;;;5114447;28;19915;-80
2022/08/07 09:40:12;;;;;;;;;;;35.60;39.00;;;;;;5114452;28;19958;-80
2022/08/07 09:42:56;;;;;;;;;;;35.90;39.10;;;;;;5114217;28;20261;-82
2022/08/07 09:45:36;;;;;;;;;;;36.70;39.10;;;;;;5114352;28;20002;-82
2022/08/07 09:48:11;;;;;;;;;;;36.60;37.80;;;;;;5114699;28;19923;-80
2022/08/07 09:50:55;;;;;;;;;;;36.70;38.40;;;;;;5114403;28;19957;-83
2022/08/07 09:53:22;;;;;;;;;;;37.20;38.30;;;;;;5114291;28;20291;-81
2022/08/07 09:55:50;;;;;;;;;;;38.60;37.70;;;;;;5114395;28;20338;-83
2022/08/07 09:58:34;;;;;;;;;;;38.40;37.10;;;;;;5114207;28;19915;-82
2022/08/07 10:01:08;;;;;;;;;;;39.00;36.40;;;;;;5114152;28;19911;-81
2022/08/07 10:03:42;;;;;;;;;;;39.80;36.10;;;;;;5114705;28;19912;-84
2022/08/07 10:06:08;;;;;;;;;;;41.30;35.80;;;;;;5113929;28;20294;-82
2022/08/07 10:08:33;;;;;;;;;;;43.80;34.90;;;;;;5113611;28;19908;-82
2022/08/07 10:11:02;;;;;;;;;;;44.80;33.80;;;;;;5114068;28;20376;-83
2022/08/07 10:13:49;;;;;;;;;;;45.20;33.10;;;;;;5113955;28;19914;-81
2022/08/07 10:16:24;;;;;;;;;;;45.40;33.10;;;;;;5114017;28;19908;-84
2022/08/07 10:19:10;;;;;;;;;;;46.80;32.30;;;;;;5114130;28;20365;-82
2022/08/07 10:21:44;;;;;;;;;;;47.10;31.80;;;;;;5062342;28;19908;-80
2022/08/07 10:24:10;;;;;;;;;;;45.90;32.00;;;;;;5114001;28;20356;-81
2022/08/07 10:26:41;;;;;;;;;;;47.20;31.60;;;;;;5113976;28;19990;-84
2022/08/07 10:29:16;;;;;;;;;;;47.90;31.20;;;;;;5114049;28;20287;-81
2022/08/07 10:31:42;;;;;;;;;;;47.30;31.00;;;;;;5114654;28;19915;-81
2022/08/07 10:34:24;;;;;;;;;;;45.90;30.70;;;;;;5113864;28;19908;-79
2022/08/07 10:37:05;;;;;;;;;;;47.20;31.50;;;;;;5114119;28;19912;-83
2022/08/07 10:39:45;;;;;;;;;;;48.40;31.00;;;;;;5113876;28;19907;-83
2022/08/07 10:42:22;;;;;;;;;;;48.00;30.60;;;;;;5113567;28;20371;-80
2022/08/07 10:44:55;;;;;;;;;;;47.80;30.50;;;;;;5113900;28;19912;-82
2022/08/07 10:47:27;;;;;;;;;;;47.50;30.60;;;;;;5113702;28;19908;-80
2022/08/07 10:50:02;;;;;;;;;;;46.90;30.60;;;;;;5113901;28;20333;-81
2022/08/07 10:52:44;;;;;;;;;;;47.40;30.50;;;;;;5113779;28;19914;-80
2022/08/07 10:55:17;;;;;;;;;;;46.10;30.00;;;;;;5095147;28;20370;-82
2022/08/07 10:58:18;;;;;;;;;;;46.90;30.70;;;;;;5113949;28;19907;-83
2022/08/07 11:01:19;;;;;;;;;;;47.60;30.00;;;;;;5011245;28;19949;-80
2022/08/07 11:03:48;;;;;;;;;;;49.10;30.00;;;;;;5070990;28;19925;-79
2022/08/07 11:06:27;;;;;;;;;;;48.50;29.30;;;;;;5105774;28;19953;-81
2022/08/07 11:09:01;;;;;;;;;;;49.00;29.90;;;;;;5113691;28;19943;-81
2022/08/07 11:11:30;;;;;;;;;;;49.90;29.90;;;;;;5114145;28;20372;-84
2022/08/07 11:14:19;;;;;;;;;;;48.00;29.50;;;;;;5113915;28;19914;-80
2022/08/07 11:16:47;;;;;;;;;;;49.10;29.80;;;;;;5100423;28;19918;-81
2022/08/07 11:19:28;;;;;;;;;;;48.80;29.20;;;;;;5115450;28;19908;-81
2022/08/07 11:21:59;;;;;;;;;;;46.80;29.50;;;;;;5117959;28;20489;-80
2022/08/07 11:24:32;;;;;;;;;;;44.50;30.20;;;;;;5117857;28;19938;-83
2022/08/07 11:27:06;;;;;;;;;;;44.70;31.10;;;;;;5117291;28;19938;-81
2022/08/07 11:29:48;;;;;;;;;;;46.30;31.20;;;;;;5118217;28;19914;-84
2022/08/07 11:32:15;;;;;;;;;;;46.10;31.40;;;;;;5118487;28;19907;-79
2022/08/07 11:34:49;;;;;;;;;;;46.90;30.10;;;;;;5118157;28;20387;-85
2022/08/07 11:37:33;;;;;;;;;;;46.60;30.40;;;;;;5117945;28;19907;-82
2022/08/07 11:40:06;;;;;;;;;;;45.70;30.00;;;;;;5117309;28;19998;-80
2022/08/07 11:42:43;;;;;;;;;;;46.00;30.50;;;;;;5117281;28;19957;-82
2022/08/07 11:45:21;;;;;;;;;;;46.00;30.20;;;;;;5117246;28;19918;-80
2022/08/07 11:47:58;;;;;;;;;;;46.70;30.20;;;;;;5117495;28;19908;-80
2022/08/07 11:50:34;;;;;;;;;;;46.50;30.10;;;;;;5117484;28;19907;-81
2022/08/07 11:53:13;;;;;;;;;;;46.90;30.00;;;;;;5117545;28;20077;-81
2022/08/07 11:55:51;;;;;;;;;;;47.50;29.90;;;;;;5117297;28;19907;-81
2022/08/07 11:58:35;;;;;;;;;;;45.90;30.00;;;;;;5116763;28;19915;-83
2022/08/07 12:01:03;;;;;;;;;;;46.00;30.00;;;;;;5117094;28;19912;-80
2022/08/07 12:03:45;;;;;;;;;;;46.80;30.20;;;;;;5116752;28;19923;-81
2022/08/07 12:06:23;;;;;;;;;;;48.30;30.00;;;;;;5116841;28;19908;-84
2022/08/07 12:08:52;;;;;;;;;;;48.20;29.50;;;;;;5116707;28;19908;-81
2022/08/07 12:11:33;;;;;;;;;;;47.20;29.20;;;;;;5116595;28;20003;-82
2022/08/07 12:14:08;;;;;;;;;;;47.30;29.20;;;;;;5116919;28;19915;-80
2022/08/07 12:16:35;;;;;;;;;;;47.00;29.10;;;;;;5116560;28;19915;-80
2022/08/07 12:19:12;;;;;;;;;;;46.90;29.20;;;;;;5116443;28;19912;-80
2022/08/07 12:21:41;;;;;;;;;;;47.70;29.50;;;;;;5116406;28;19908;-82
2022/08/07 12:24:33;;;;;;;;;;;48.30;29.10;;;;;;5116216;28;20019;-83
2022/08/07 12:27:09;;;;;;;;;;;49.60;28.90;;;;;;5077203;28;20288;-81
2022/08/07 12:29:37;;;;;;;;;;;49.90;28.90;;;;;;5115683;28;19944;-83
2022/08/07 12:32:21;;;;;;;;;;;49.50;28.50;;;;;;5117133;28;19990;-84
2022/08/07 12:34:48;;;;;;;;;;;49.00;28.80;;;;;;5116144;28;20375;-81
2022/08/07 12:37:15;;;;;;;;;;;48.00;28.90;;;;;;5116143;28;19907;-84
2022/08/07 12:39:43;;;;;;;;;;;49.10;29.20;;;;;;5116047;28;19914;-83
2022/08/07 12:42:09;;;;;;;;;;;49.50;28.90;;;;;;5116199;28;19919;-81
2022/08/07 12:44:37;;;;;;;;;;;49.50;28.70;;;;;;5115889;28;19911;-80
2022/08/07 12:47:21;;;;;;;;;;;48.10;28.60;;;;;;5115914;28;19908;-83
2022/08/07 12:49:47;;;;;;;;;;;48.00;28.40;;;;;;5115664;28;20295;-84
2022/08/07 12:52:14;;;;;;;;;;;47.50;28.70;;;;;;5115757;28;19908;-80
2022/08/07 12:54:43;;;;;;;;;;;48.00;28.80;;;;;;5115627;28;19908;-84
2022/08/07 12:57:09;;;;;;;;;;;48.80;28.60;;;;;;5115699;28;19908;-83
2022/08/07 12:59:35;;;;;;;;;;;48.00;28.30;;;;;;5116051;28;19915;-84
2022/08/07 13:02:01;;;;;;;;;;;47.00;28.60;;;;;;5115390;28;19994;-82
2022/08/07 13:04:30;;;;;;;;;;;47.50;28.70;;;;;;5115299;28;20268;-84
2022/08/07 13:06:58;;;;;;;;;;;48.80;28.70;;;;;;5115523;28;19908;-81
2022/08/07 13:09:27;;;;;;;;;;;50.50;28.50;;;;;;5115381;28;20415;-81
2022/08/07 13:12:11;;;;;;;;;;;49.80;28.40;;;;;;5115366;28;20488;-84
2022/08/07 13:14:50;;;;;;;;;;;48.50;28.20;;;;;;5115227;28;19908;-84
2022/08/07 13:17:29;;;;;;;;;;;46.80;28.60;;;;;;5115193;28;20283;-83
2022/08/07 13:20:10;;;;;;;;;;;48.10;28.60;;;;;;5115282;28;20002;-80
2022/08/07 13:22:44;;;;;;;;;;;48.70;28.30;;;;;;5115169;28;19907;-82
2022/08/07 13:25:16;;;;;;;;;;;48.00;27.90;;;;;;5115098;28;19916;-83
2022/08/07 13:27:51;;;;;;;;;;;48.70;28.20;;;;;;5114954;28;19933;-81
2022/08/07 13:30:17;;;;;;;;;;;47.00;28.30;;;;;;5114965;28;20360;-81
2022/08/07 13:32:48;;;;;;;;;;;47.50;28.70;;;;;;5115721;28;19929;-81
2022/08/07 13:35:23;;;;;;;;;;;47.80;28.30;;;;;;5114705;28;20367;-81
2022/08/07 13:37:55;;;;;;;;;;;46.80;28.50;;;;;;5114821;28;19919;-81
2022/08/07 13:40:30;;;;;;;;;;;46.60;28.70;;;;;;5114839;28;19912;-80
2022/08/07 13:42:58;;;;;;;;;;;45.80;28.50;;;;;;5113708;28;19968;-81
2022/08/07 13:45:25;;;;;;;;;;;44.40;28.90;;;;;;5114496;28;19912;-81
2022/08/07 13:47:52;;;;;;;;;;;44.60;29.30;;;;;;5114578;28;20354;-84
2022/08/07 13:50:19;;;;;;;;;;;44.00;29.40;;;;;;5114482;28;19908;-80
2022/08/07 13:52:45;;;;;;;;;;;43.60;29.80;;;;;;5114678;28;20393;-80
2022/08/07 13:55:13;;;;;;;;;;;43.30;29.70;;;;;;5114720;28;19950;-83
2022/08/07 13:57:41;;;;;;;;;;;41.90;30.00;;;;;;5114481;28;19915;-80
2022/08/07 14:00:08;;;;;;;;;;;41.50;30.40;;;;;;5114448;28;19908;-82
2022/08/07 14:02:34;;;;;;;;;;;41.10;30.40;;;;;;5114418;28;20253;-81
2022/08/07 14:05:03;;;;;;;;;;;41.10;31.80;;;;;;5114133;28;19916;-81
2022/08/07 14:07:38;;;;;;;;;;;40.00;32.70;;;;;;5095809;28;19994;-84
2022/08/07 14:10:04;;;;;;;;;;;40.50;32.70;;;;;;5114133;28;19908;-82
2022/08/07 14:12:30;;;;;;;;;;;40.70;33.00;;;;;;5114715;28;19960;-81
2022/08/07 14:15:01;;;;;;;;;;;40.90;32.20;;;;;;5114056;28;20265;-82
2022/08/07 14:17:28;;;;;;;;;;;40.40;32.90;;;;;;5114100;28;20268;-83
2022/08/07 14:19:59;;;;;;;;;;;39.90;33.30;;;;;;5113898;28;19992;-82
2022/08/07 14:22:27;;;;;;;;;;;40.20;33.50;;;;;;5113891;28;20284;-83
2022/08/07 14:25:05;;;;;;;;;;;39.70;33.70;;;;;;5113915;28;19916;-82
2022/08/07 14:27:44;;;;;;;;;;;40.30;33.40;;;;;;5114235;28;19908;-82
2022/08/07 14:30:11;;;;;;;;;;;39.90;33.70;;;;;;5114168;28;19914;-82
2022/08/07 14:32:39;;;;;;;;;;;40.30;33.50;;;;;;5114585;28;19915;-83
2022/08/07 14:35:06;;;;;;;;;;;40.00;33.70;;;;;;5113873;28;19998;-84